sensor_id;sensor_type;location;lat;lon;timestamp;temperature;humidity
33955;DHT22;20233;50.804;7.126;2023-07-13T00:01:16;19.10;99.90
33955;DHT22;20233;50.804;7.126;2023-07-13T00:03:42;19.00;99.90
33955;DHT22;20233;50.804;7.126;2023-07-13T00:06:08;19.00;99.90
33955;DHT22;20233;50.804;7.126;2023-07-13T00:08:34;19.00;99.90
33955;DHT22;20233;50.804;7.126;2023-07-13T00:11:03;18.90;99.90
33955;DHT22;20233;50.804;7.126;2023-07-13T00:13:30;18.90;99.90
33955;DHT22;20233;50.804;7.126;2023-07-13T00:15:57;18.80;99.90
33955;DHT22;20233;50.804;7.126;2023-07-13T00:18:24;18.80;99.90
33955;DHT22;20233;50.804;7.126;2023-07-13T00:20:49;18.80;99.90
33955;DHT22;20233;50.804;7.126;2023-07-13T00:23:15;18.70;99.90
33955;DHT22;20233;50.804;7.126;2023-07-13T00:25:42;18.70;99.90
33955;DHT22;20233;50.804;7.126;2023-07-13T00:28:08;18.70;99.90
33955;DHT22;20233;50.804;7.126;2023-07-13T00:30:33;18.60;99.90
33955;DHT22;20233;50.804;7.126;2023-07-13T00:32:59;18.60;99.90
33955;DHT22;20233;50.804;7.126;2023-07-13T00:35:26;18.50;99.90
33955;DHT22;20233;50.804;7.126;2023-07-13T00:37:52;18.50;99.90
33955;DHT22;20233;50.804;7.126;2023-07-13T00:40:17;18.50;99.90
33955;DHT22;20233;50.804;7.126;2023-07-13T00:42:43;18.50;99.90
33955;DHT22;20233;50.804;7.126;2023-07-13T00:47:38;18.40;99.90
33955;DHT22;20233;50.804;7.126;2023-07-13T00:50:07;18.40;99.90
33955;DHT22;20233;50.804;7.126;2023-07-13T00:52:36;18.40;99.90
33955;DHT22;20233;50.804;7.126;2023-07-13T00:55:04;18.30;99.90
33955;DHT22;20233;50.804;7.126;2023-07-13T00:57:30;18.30;99.90
33955;DHT22;20233;50.804;7.126;2023-07-13T00:59:59;18.30;99.90
33955;DHT22;20233;50.804;7.126;2023-07-13T01:02:32;18.20;99.90
33955;DHT22;20233;50.804;7.126;2023-07-13T01:04:58;18.20;99.90
33955;DHT22;20233;50.804;7.126;2023-07-13T01:07:24;18.20;99.90
33955;DHT22;20233;50.804;7.126;2023-07-13T01:09:50;18.20;99.90
33955;DHT22;20233;50.804;7.126;2023-07-13T01:12:16;18.10;99.90
33955;DHT22;20233;50.804;7.126;2023-07-13T01:14:41;18.10;99.90
33955;DHT22;20233;50.804;7.126;2023-07-13T01:17:09;18.00;99.90
33955;DHT22;20233;50.804;7.126;2023-07-13T01:19:44;18.00;99.90
33955;DHT22;20233;50.804;7.126;2023-07-13T01:22:16;17.90;99.90
33955;DHT22;20233;50.804;7.126;2023-07-13T01:24:43;17.90;99.90
33955;DHT22;20233;50.804;7.126;2023-07-13T01:27:12;17.80;99.90
33955;DHT22;20233;50.804;7.126;2023-07-13T01:29:38;17.80;99.90
33955;DHT22;20233;50.804;7.126;2023-07-13T01:32:23;17.80;99.90
33955;DHT22;20233;50.804;7.126;2023-07-13T01:34:50;17.70;99.90
33955;DHT22;20233;50.804;7.126;2023-07-13T01:37:17;17.80;99.90
33955;DHT22;20233;50.804;7.126;2023-07-13T01:39:42;17.70;99.90
33955;DHT22;20233;50.804;7.126;2023-07-13T01:42:08;17.70;99.90
33955;DHT22;20233;50.804;7.126;2023-07-13T01:44:34;17.60;99.90
33955;DHT22;20233;50.804;7.126;2023-07-13T01:47:00;17.60;99.90
33955;DHT22;20233;50.804;7.126;2023-07-13T01:49:26;17.60;99.90
33955;DHT22;20233;50.804;7.126;2023-07-13T01:51:52;17.50;99.90
33955;DHT22;20233;50.804;7.126;2023-07-13T01:54:18;17.60;99.90
33955;DHT22;20233;50.804;7.126;2023-07-13T01:56:43;17.50;99.90
33955;DHT22;20233;50.804;7.126;2023-07-13T01:59:09;17.50;99.90
33955;DHT22;20233;50.804;7.126;2023-07-13T02:01:34;17.50;99.90
33955;DHT22;20233;50.804;7.126;2023-07-13T02:04:00;17.50;99.90
33955;DHT22;20233;50.804;7.126;2023-07-13T02:06:26;17.50;99.90
33955;DHT22;20233;50.804;7.126;2023-07-13T02:08:51;17.50;99.90
33955;DHT22;20233;50.804;7.126;2023-07-13T02:11:17;17.50;99.90
33955;DHT22;20233;50.804;7.126;2023-07-13T02:13:42;17.50;99.90
33955;DHT22;20233;50.804;7.126;2023-07-13T02:16:08;17.50;99.90
33955;DHT22;20233;50.804;7.126;2023-07-13T02:18:34;17.40;99.90
33955;DHT22;20233;50.804;7.126;2023-07-13T02:21:00;17.50;99.90
33955;DHT22;20233;50.804;7.126;2023-07-13T02:23:25;17.50;99.90
33955;DHT22;20233;50.804;7.126;2023-07-13T02:26:03;17.50;99.90
33955;DHT22;20233;50.804;7.126;2023-07-13T02:28:30;17.50;99.90
33955;DHT22;20233;50.804;7.126;2023-07-13T02:31:10;17.50;99.90
33955;DHT22;20233;50.804;7.126;2023-07-13T02:33:36;17.50;99.90
33955;DHT22;20233;50.804;7.126;2023-07-13T02:36:02;17.50;99.90
33955;DHT22;20233;50.804;7.126;2023-07-13T02:38:29;17.50;99.90
33955;DHT22;20233;50.804;7.126;2023-07-13T02:40:54;17.50;99.90
33955;DHT22;20233;50.804;7.126;2023-07-13T02:43:20;17.60;99.90
33955;DHT22;20233;50.804;7.126;2023-07-13T02:45:46;17.60;99.90
33955;DHT22;20233;50.804;7.126;2023-07-13T02:48:13;17.60;99.90
33955;DHT22;20233;50.804;7.126;2023-07-13T02:50:39;17.60;99.90
33955;DHT22;20233;50.804;7.126;2023-07-13T02:53:05;17.60;99.90
33955;DHT22;20233;50.804;7.126;2023-07-13T02:55:30;17.60;99.90
33955;DHT22;20233;50.804;7.126;2023-07-13T02:57:56;17.60;99.90
33955;DHT22;20233;50.804;7.126;2023-07-13T03:00:22;17.60;99.90
33955;DHT22;20233;50.804;7.126;2023-07-13T03:02:48;17.60;99.90
33955;DHT22;20233;50.804;7.126;2023-07-13T03:05:14;17.60;99.90
33955;DHT22;20233;50.804;7.126;2023-07-13T03:07:41;17.60;99.90
33955;DHT22;20233;50.804;7.126;2023-07-13T03:10:07;17.60;99.90
33955;DHT22;20233;50.804;7.126;2023-07-13T03:12:33;17.60;99.90
33955;DHT22;20233;50.804;7.126;2023-07-13T03:14:59;17.50;99.90
33955;DHT22;20233;50.804;7.126;2023-07-13T03:17:24;17.50;99.90
33955;DHT22;20233;50.804;7.126;2023-07-13T03:19:50;17.50;99.90
33955;DHT22;20233;50.804;7.126;2023-07-13T03:22:17;17.50;99.90
33955;DHT22;20233;50.804;7.126;2023-07-13T03:24:43;17.40;99.90
33955;DHT22;20233;50.804;7.126;2023-07-13T03:27:09;17.40;99.90
33955;DHT22;20233;50.804;7.126;2023-07-13T03:29:35;17.40;99.90
33955;DHT22;20233;50.804;7.126;2023-07-13T03:32:00;17.50;99.90
33955;DHT22;20233;50.804;7.126;2023-07-13T03:34:26;17.40;99.90
33955;DHT22;20233;50.804;7.126;2023-07-13T03:36:54;17.40;99.90
33955;DHT22;20233;50.804;7.126;2023-07-13T03:39:20;17.50;99.90
33955;DHT22;20233;50.804;7.126;2023-07-13T03:41:46;17.50;99.90
33955;DHT22;20233;50.804;7.126;2023-07-13T03:44:11;17.60;99.90
33955;DHT22;20233;50.804;7.126;2023-07-13T03:46:37;17.60;99.90
33955;DHT22;20233;50.804;7.126;2023-07-13T03:49:04;17.50;99.90
33955;DHT22;20233;50.804;7.126;2023-07-13T03:51:30;17.60;99.90
33955;DHT22;20233;50.804;7.126;2023-07-13T03:53:56;17.60;99.90
33955;DHT22;20233;50.804;7.126;2023-07-13T03:56:22;17.60;99.90
33955;DHT22;20233;50.804;7.126;2023-07-13T03:58:49;17.60;99.90
33955;DHT22;20233;50.804;7.126;2023-07-13T04:01:16;17.70;99.90
33955;DHT22;20233;50.804;7.126;2023-07-13T04:03:42;17.70;99.90
33955;DHT22;20233;50.804;7.126;2023-07-13T04:06:16;17.70;99.90
33955;DHT22;20233;50.804;7.126;2023-07-13T04:08:54;17.70;99.90
33955;DHT22;20233;50.804;7.126;2023-07-13T04:11:21;17.80;99.90
33955;DHT22;20233;50.804;7.126;2023-07-13T04:13:47;17.70;99.90
33955;DHT22;20233;50.804;7.126;2023-07-13T04:16:15;17.80;99.90
33955;DHT22;20233;50.804;7.126;2023-07-13T04:18:41;17.70;99.90
33955;DHT22;20233;50.804;7.126;2023-07-13T04:21:07;17.70;99.90
33955;DHT22;20233;50.804;7.126;2023-07-13T04:23:32;17.70;99.90
33955;DHT22;20233;50.804;7.126;2023-07-13T04:25:58;17.70;99.90
33955;DHT22;20233;50.804;7.126;2023-07-13T04:28:26;17.70;99.90
33955;DHT22;20233;50.804;7.126;2023-07-13T04:30:52;17.70;99.90
33955;DHT22;20233;50.804;7.126;2023-07-13T04:33:18;17.60;99.90
33955;DHT22;20233;50.804;7.126;2023-07-13T04:35:50;17.70;99.90
33955;DHT22;20233;50.804;7.126;2023-07-13T04:38:20;17.70;99.90
33955;DHT22;20233;50.804;7.126;2023-07-13T04:40:45;17.70;99.90
33955;DHT22;20233;50.804;7.126;2023-07-13T04:43:11;17.70;99.90
33955;DHT22;20233;50.804;7.126;2023-07-13T04:45:37;17.70;99.90
33955;DHT22;20233;50.804;7.126;2023-07-13T04:48:02;17.80;99.90
33955;DHT22;20233;50.804;7.126;2023-07-13T04:50:28;17.80;99.90
33955;DHT22;20233;50.804;7.126;2023-07-13T04:52:54;17.80;99.90
33955;DHT22;20233;50.804;7.126;2023-07-13T04:55:20;17.90;99.90
33955;DHT22;20233;50.804;7.126;2023-07-13T04:57:46;17.90;99.90
33955;DHT22;20233;50.804;7.126;2023-07-13T05:00:12;17.90;99.90
33955;DHT22;20233;50.804;7.126;2023-07-13T05:02:39;18.00;99.90
33955;DHT22;20233;50.804;7.126;2023-07-13T05:05:05;18.00;99.90
33955;DHT22;20233;50.804;7.126;2023-07-13T05:07:32;18.00;99.90
33955;DHT22;20233;50.804;7.126;2023-07-13T05:09:59;18.10;99.90
33955;DHT22;20233;50.804;7.126;2023-07-13T05:12:27;18.10;99.90
33955;DHT22;20233;50.804;7.126;2023-07-13T05:14:54;18.10;99.90
33955;DHT22;20233;50.804;7.126;2023-07-13T05:17:20;18.10;99.90
33955;DHT22;20233;50.804;7.126;2023-07-13T05:19:47;18.20;99.90
33955;DHT22;20233;50.804;7.126;2023-07-13T05:22:13;18.20;99.90
33955;DHT22;20233;50.804;7.126;2023-07-13T05:24:40;18.20;99.90
33955;DHT22;20233;50.804;7.126;2023-07-13T05:27:06;18.30;99.90
33955;DHT22;20233;50.804;7.126;2023-07-13T05:29:31;18.30;99.90
33955;DHT22;20233;50.804;7.126;2023-07-13T05:31:57;18.40;99.90
33955;DHT22;20233;50.804;7.126;2023-07-13T05:34:24;18.40;99.90
33955;DHT22;20233;50.804;7.126;2023-07-13T05:36:51;18.40;99.90
33955;DHT22;20233;50.804;7.126;2023-07-13T05:39:18;18.50;99.90
33955;DHT22;20233;50.804;7.126;2023-07-13T05:41:46;18.50;99.90
33955;DHT22;20233;50.804;7.126;2023-07-13T05:44:12;18.60;99.90
33955;DHT22;20233;50.804;7.126;2023-07-13T05:46:38;18.60;99.90
33955;DHT22;20233;50.804;7.126;2023-07-13T05:49:05;18.60;99.90
33955;DHT22;20233;50.804;7.126;2023-07-13T05:51:32;18.70;99.90
33955;DHT22;20233;50.804;7.126;2023-07-13T05:53:59;18.70;99.90
33955;DHT22;20233;50.804;7.126;2023-07-13T05:56:25;18.80;99.90
33955;DHT22;20233;50.804;7.126;2023-07-13T05:58:52;18.90;99.90
33955;DHT22;20233;50.804;7.126;2023-07-13T06:01:18;19.00;99.90
33955;DHT22;20233;50.804;7.126;2023-07-13T06:03:47;19.10;99.90
33955;DHT22;20233;50.804;7.126;2023-07-13T06:06:14;19.10;99.90
33955;DHT22;20233;50.804;7.126;2023-07-13T06:08:41;19.10;99.90
33955;DHT22;20233;50.804;7.126;2023-07-13T06:11:21;19.20;99.90
33955;DHT22;20233;50.804;7.126;2023-07-13T06:13:48;19.40;99.90
33955;DHT22;20233;50.804;7.126;2023-07-13T06:16:16;19.40;99.90
33955;DHT22;20233;50.804;7.126;2023-07-13T06:18:43;19.40;99.90
33955;DHT22;20233;50.804;7.126;2023-07-13T06:21:18;19.40;99.90
33955;DHT22;20233;50.804;7.126;2023-07-13T06:23:46;19.40;99.90
33955;DHT22;20233;50.804;7.126;2023-07-13T06:26:17;19.40;99.90
33955;DHT22;20233;50.804;7.126;2023-07-13T06:28:43;19.50;99.90
33955;DHT22;20233;50.804;7.126;2023-07-13T06:31:11;19.70;99.90
33955;DHT22;20233;50.804;7.126;2023-07-13T06:33:38;19.80;99.90
33955;DHT22;20233;50.804;7.126;2023-07-13T06:36:06;20.00;99.90
33955;DHT22;20233;50.804;7.126;2023-07-13T06:38:34;20.10;99.90
33955;DHT22;20233;50.804;7.126;2023-07-13T06:41:01;20.10;99.90
33955;DHT22;20233;50.804;7.126;2023-07-13T06:43:27;20.00;99.90
33955;DHT22;20233;50.804;7.126;2023-07-13T06:45:56;20.10;99.90
33955;DHT22;20233;50.804;7.126;2023-07-13T06:48:22;20.00;99.90
33955;DHT22;20233;50.804;7.126;2023-07-13T06:50:49;19.90;99.90
33955;DHT22;20233;50.804;7.126;2023-07-13T06:53:18;20.00;99.90
33955;DHT22;20233;50.804;7.126;2023-07-13T06:55:44;20.10;99.90
33955;DHT22;20233;50.804;7.126;2023-07-13T06:58:11;20.10;99.90
33955;DHT22;20233;50.804;7.126;2023-07-13T07:00:37;20.20;99.90
33955;DHT22;20233;50.804;7.126;2023-07-13T07:03:03;20.20;99.90
33955;DHT22;20233;50.804;7.126;2023-07-13T07:05:33;20.40;99.90
33955;DHT22;20233;50.804;7.126;2023-07-13T07:07:59;20.50;99.90
33955;DHT22;20233;50.804;7.126;2023-07-13T07:10:26;20.60;99.90
33955;DHT22;20233;50.804;7.126;2023-07-13T07:12:52;20.60;99.90
33955;DHT22;20233;50.804;7.126;2023-07-13T07:15:19;20.50;99.90
33955;DHT22;20233;50.804;7.126;2023-07-13T07:17:45;20.60;99.90
33955;DHT22;20233;50.804;7.126;2023-07-13T07:20:12;20.60;99.90
33955;DHT22;20233;50.804;7.126;2023-07-13T07:22:38;20.60;99.90
33955;DHT22;20233;50.804;7.126;2023-07-13T07:25:06;20.60;99.90
33955;DHT22;20233;50.804;7.126;2023-07-13T07:27:32;20.50;99.90
33955;DHT22;20233;50.804;7.126;2023-07-13T07:29:59;20.50;99.90
33955;DHT22;20233;50.804;7.126;2023-07-13T07:32:28;20.60;99.90
33955;DHT22;20233;50.804;7.126;2023-07-13T07:34:55;20.60;99.90
33955;DHT22;20233;50.804;7.126;2023-07-13T07:37:21;20.50;99.90
33955;DHT22;20233;50.804;7.126;2023-07-13T07:39:48;20.60;99.90
33955;DHT22;20233;50.804;7.126;2023-07-13T07:42:14;20.40;99.90
33955;DHT22;20233;50.804;7.126;2023-07-13T07:44:41;20.40;99.90
33955;DHT22;20233;50.804;7.126;2023-07-13T07:47:07;20.60;99.90
33955;DHT22;20233;50.804;7.126;2023-07-13T07:49:35;20.60;99.90
33955;DHT22;20233;50.804;7.126;2023-07-13T07:52:01;20.50;99.90
33955;DHT22;20233;50.804;7.126;2023-07-13T07:54:27;20.60;99.90
33955;DHT22;20233;50.804;7.126;2023-07-13T07:56:54;20.30;99.90
33955;DHT22;20233;50.804;7.126;2023-07-13T07:59:20;20.50;99.90
33955;DHT22;20233;50.804;7.126;2023-07-13T08:01:47;20.60;99.90
33955;DHT22;20233;50.804;7.126;2023-07-13T08:04:16;20.80;99.90
33955;DHT22;20233;50.804;7.126;2023-07-13T08:06:42;20.80;99.90
33955;DHT22;20233;50.804;7.126;2023-07-13T08:09:08;20.80;99.90
33955;DHT22;20233;50.804;7.126;2023-07-13T08:11:35;20.90;99.90
33955;DHT22;20233;50.804;7.126;2023-07-13T08:14:01;21.00;99.90
33955;DHT22;20233;50.804;7.126;2023-07-13T08:16:28;21.20;99.90
33955;DHT22;20233;50.804;7.126;2023-07-13T08:18:54;21.40;99.90
33955;DHT22;20233;50.804;7.126;2023-07-13T08:21:20;21.50;99.90
33955;DHT22;20233;50.804;7.126;2023-07-13T08:23:47;21.60;99.90
33955;DHT22;20233;50.804;7.126;2023-07-13T08:26:13;21.70;99.90
33955;DHT22;20233;50.804;7.126;2023-07-13T08:28:40;21.80;99.90
33955;DHT22;20233;50.804;7.126;2023-07-13T08:31:07;21.60;99.90
33955;DHT22;20233;50.804;7.126;2023-07-13T08:33:34;21.80;99.90
33955;DHT22;20233;50.804;7.126;2023-07-13T08:36:01;21.80;99.90
33955;DHT22;20233;50.804;7.126;2023-07-13T08:38:29;21.80;99.90
33955;DHT22;20233;50.804;7.126;2023-07-13T08:40:57;21.90;99.90
33955;DHT22;20233;50.804;7.126;2023-07-13T08:43:28;21.90;99.90
33955;DHT22;20233;50.804;7.126;2023-07-13T08:46:46;21.60;99.90
33955;DHT22;20233;50.804;7.126;2023-07-13T08:48:55;21.60;99.90
33955;DHT22;20233;50.804;7.126;2023-07-13T08:51:40;21.60;99.90
33955;DHT22;20233;50.804;7.126;2023-07-13T08:54:27;22.00;99.90
33955;DHT22;20233;50.804;7.126;2023-07-13T08:56:54;22.40;99.90
33955;DHT22;20233;50.804;7.126;2023-07-13T08:59:28;22.50;99.90
33955;DHT22;20233;50.804;7.126;2023-07-13T09:02:24;22.70;99.90
33955;DHT22;20233;50.804;7.126;2023-07-13T09:10:31;23.00;99.90
33955;DHT22;20233;50.804;7.126;2023-07-13T09:13:25;23.10;99.90
33955;DHT22;20233;50.804;7.126;2023-07-13T09:15:52;22.80;99.90
33955;DHT22;20233;50.804;7.126;2023-07-13T09:18:32;23.20;99.90
33955;DHT22;20233;50.804;7.126;2023-07-13T09:23:44;23.10;99.90
33955;DHT22;20233;50.804;7.126;2023-07-13T09:31:49;23.10;99.90
33955;DHT22;20233;50.804;7.126;2023-07-13T09:34:18;23.50;99.90
33955;DHT22;20233;50.804;7.126;2023-07-13T09:36:45;23.40;99.90
33955;DHT22;20233;50.804;7.126;2023-07-13T09:39:18;22.80;99.90
33955;DHT22;20233;50.804;7.126;2023-07-13T09:44:17;22.80;99.90
33955;DHT22;20233;50.804;7.126;2023-07-13T09:46:53;23.30;99.90
33955;DHT22;20233;50.804;7.126;2023-07-13T09:49:27;23.10;99.90
33955;DHT22;20233;50.804;7.126;2023-07-13T09:52:05;22.50;99.90
33955;DHT22;20233;50.804;7.126;2023-07-13T09:54:34;22.90;99.90
33955;DHT22;20233;50.804;7.126;2023-07-13T09:57:03;22.80;99.90
33955;DHT22;20233;50.804;7.126;2023-07-13T09:59:35;23.40;99.90
33955;DHT22;20233;50.804;7.126;2023-07-13T10:02:27;23.60;99.90
33955;DHT22;20233;50.804;7.126;2023-07-13T10:05:06;23.90;99.90
33955;DHT22;20233;50.804;7.126;2023-07-13T10:07:39;23.90;99.90
33955;DHT22;20233;50.804;7.126;2023-07-13T10:10:17;23.90;99.90
33955;DHT22;20233;50.804;7.126;2023-07-13T10:12:44;23.50;99.90
33955;DHT22;20233;50.804;7.126;2023-07-13T10:15:22;23.60;99.90
33955;DHT22;20233;50.804;7.126;2023-07-13T10:17:51;23.60;99.90
33955;DHT22;20233;50.804;7.126;2023-07-13T10:20:17;23.90;99.90
33955;DHT22;20233;50.804;7.126;2023-07-13T10:22:50;23.90;99.90
33955;DHT22;20233;50.804;7.126;2023-07-13T10:25:21;24.10;99.90
33955;DHT22;20233;50.804;7.126;2023-07-13T10:27:51;23.70;99.90
33955;DHT22;20233;50.804;7.126;2023-07-13T10:32:50;23.50;99.90
33955;DHT22;20233;50.804;7.126;2023-07-13T10:35:18;23.60;99.90
33955;DHT22;20233;50.804;7.126;2023-07-13T10:38:01;23.50;99.90
33955;DHT22;20233;50.804;7.126;2023-07-13T10:40:40;24.10;99.90
33955;DHT22;20233;50.804;7.126;2023-07-13T10:46:25;24.30;99.90
33955;DHT22;20233;50.804;7.126;2023-07-13T10:51:30;24.70;99.90
33955;DHT22;20233;50.804;7.126;2023-07-13T10:54:35;23.70;99.90
33955;DHT22;20233;50.804;7.126;2023-07-13T10:57:20;24.00;99.90
33955;DHT22;20233;50.804;7.126;2023-07-13T10:59:49;23.50;99.90
33955;DHT22;20233;50.804;7.126;2023-07-13T11:02:34;23.70;99.90
33955;DHT22;20233;50.804;7.126;2023-07-13T11:05:26;23.20;99.90
33955;DHT22;20233;50.804;7.126;2023-07-13T11:08:50;23.50;99.90
33955;DHT22;20233;50.804;7.126;2023-07-13T11:10:55;23.50;99.90
33955;DHT22;20233;50.804;7.126;2023-07-13T11:18:49;25.80;99.90
33955;DHT22;20233;50.804;7.126;2023-07-13T11:23:54;26.30;99.90
33955;DHT22;20233;50.804;7.126;2023-07-13T11:31:59;26.00;99.90
33955;DHT22;20233;50.804;7.126;2023-07-13T11:34:33;25.50;99.90
33955;DHT22;20233;50.804;7.126;2023-07-13T11:37:01;25.70;99.90
33955;DHT22;20233;50.804;7.126;2023-07-13T11:39:36;25.20;99.90
33955;DHT22;20233;50.804;7.126;2023-07-13T11:42:07;25.20;99.90
33955;DHT22;20233;50.804;7.126;2023-07-13T11:44:35;25.30;99.90
33955;DHT22;20233;50.804;7.126;2023-07-13T11:47:16;25.60;99.90
33955;DHT22;20233;50.804;7.126;2023-07-13T11:49:49;24.80;99.90
33955;DHT22;20233;50.804;7.126;2023-07-13T11:52:23;24.70;99.90
33955;DHT22;20233;50.804;7.126;2023-07-13T11:54:55;25.00;99.90
33955;DHT22;20233;50.804;7.126;2023-07-13T11:57:27;25.20;99.90
33955;DHT22;20233;50.804;7.126;2023-07-13T11:59:55;25.30;99.90
33955;DHT22;20233;50.804;7.126;2023-07-13T12:02:33;25.50;99.90
33955;DHT22;20233;50.804;7.126;2023-07-13T12:05:01;25.50;99.90
33955;DHT22;20233;50.804;7.126;2023-07-13T12:07:30;25.20;99.90
33955;DHT22;20233;50.804;7.126;2023-07-13T12:12:40;24.10;99.90
33955;DHT22;20233;50.804;7.126;2023-07-13T12:15:11;24.70;99.90
33955;DHT22;20233;50.804;7.126;2023-07-13T12:17:37;24.90;99.90
33955;DHT22;20233;50.804;7.126;2023-07-13T12:20:25;25.00;99.90
33955;DHT22;20233;50.804;7.126;2023-07-13T12:22:53;25.20;99.90
33955;DHT22;20233;50.804;7.126;2023-07-13T12:25:20;25.30;99.90
33955;DHT22;20233;50.804;7.126;2023-07-13T12:27:49;25.20;99.90
33955;DHT22;20233;50.804;7.126;2023-07-13T12:30:31;25.20;99.90
33955;DHT22;20233;50.804;7.126;2023-07-13T12:33:06;24.90;99.90
33955;DHT22;20233;50.804;7.126;2023-07-13T12:35:42;24.80;99.90
33955;DHT22;20233;50.804;7.126;2023-07-13T12:38:11;24.90;99.90
33955;DHT22;20233;50.804;7.126;2023-07-13T12:40:38;24.90;99.90
33955;DHT22;20233;50.804;7.126;2023-07-13T12:43:14;24.80;99.90
33955;DHT22;20233;50.804;7.126;2023-07-13T12:45:58;24.20;99.90
33955;DHT22;20233;50.804;7.126;2023-07-13T12:48:26;24.50;99.90
33955;DHT22;20233;50.804;7.126;2023-07-13T12:50:54;24.10;99.90
33955;DHT22;20233;50.804;7.126;2023-07-13T12:53:24;24.40;99.90
33955;DHT22;20233;50.804;7.126;2023-07-13T12:56:02;24.70;99.90
33955;DHT22;20233;50.804;7.126;2023-07-13T12:58:40;24.60;99.90
33955;DHT22;20233;50.804;7.126;2023-07-13T13:01:14;24.80;99.90
33955;DHT22;20233;50.804;7.126;2023-07-13T13:03:48;25.10;99.90
33955;DHT22;20233;50.804;7.126;2023-07-13T13:09:00;25.10;99.90
33955;DHT22;20233;50.804;7.126;2023-07-13T13:11:30;25.20;99.90
33955;DHT22;20233;50.804;7.126;2023-07-13T13:13:57;25.10;99.90
33955;DHT22;20233;50.804;7.126;2023-07-13T13:16:30;25.10;99.90
33955;DHT22;20233;50.804;7.126;2023-07-13T13:19:27;25.20;99.90
33955;DHT22;20233;50.804;7.126;2023-07-13T13:21:55;25.40;99.90
33955;DHT22;20233;50.804;7.126;2023-07-13T13:24:26;25.50;99.90
33955;DHT22;20233;50.804;7.126;2023-07-13T13:26:54;25.10;99.90
33955;DHT22;20233;50.804;7.126;2023-07-13T13:29:24;25.30;99.90
33955;DHT22;20233;50.804;7.126;2023-07-13T13:31:51;25.40;99.90
33955;DHT22;20233;50.804;7.126;2023-07-13T13:34:19;25.50;99.90
33955;DHT22;20233;50.804;7.126;2023-07-13T13:36:47;24.90;99.90
33955;DHT22;20233;50.804;7.126;2023-07-13T13:39:20;25.40;99.90
33955;DHT22;20233;50.804;7.126;2023-07-13T13:41:48;25.40;99.90
33955;DHT22;20233;50.804;7.126;2023-07-13T13:44:16;25.30;99.90
33955;DHT22;20233;50.804;7.126;2023-07-13T13:46:47;25.60;99.90
33955;DHT22;20233;50.804;7.126;2023-07-13T13:49:16;25.50;99.90
33955;DHT22;20233;50.804;7.126;2023-07-13T13:51:43;25.10;99.90
33955;DHT22;20233;50.804;7.126;2023-07-13T13:54:17;25.30;99.90
33955;DHT22;20233;50.804;7.126;2023-07-13T13:56:46;25.80;99.90
33955;DHT22;20233;50.804;7.126;2023-07-13T13:59:13;26.10;99.90
33955;DHT22;20233;50.804;7.126;2023-07-13T14:01:44;26.20;99.90
33955;DHT22;20233;50.804;7.126;2023-07-13T14:04:19;26.20;99.90
33955;DHT22;20233;50.804;7.126;2023-07-13T14:06:47;26.10;99.90
33955;DHT22;20233;50.804;7.126;2023-07-13T14:09:15;26.10;99.90
33955;DHT22;20233;50.804;7.126;2023-07-13T14:11:42;25.70;99.90
33955;DHT22;20233;50.804;7.126;2023-07-13T14:14:20;25.90;99.90
33955;DHT22;20233;50.804;7.126;2023-07-13T14:16:48;26.10;99.90
33955;DHT22;20233;50.804;7.126;2023-07-13T14:19:19;26.10;99.90
33955;DHT22;20233;50.804;7.126;2023-07-13T14:21:45;26.00;99.90
33955;DHT22;20233;50.804;7.126;2023-07-13T14:24:13;25.80;99.90
33955;DHT22;20233;50.804;7.126;2023-07-13T14:26:40;26.00;99.90
33955;DHT22;20233;50.804;7.126;2023-07-13T14:29:18;26.20;99.90
33955;DHT22;20233;50.804;7.126;2023-07-13T14:31:45;26.30;99.90
33955;DHT22;20233;50.804;7.126;2023-07-13T14:34:12;26.60;99.90
33955;DHT22;20233;50.804;7.126;2023-07-13T14:36:45;26.80;99.90
33955;DHT22;20233;50.804;7.126;2023-07-13T14:39:21;26.20;99.90
33955;DHT22;20233;50.804;7.126;2023-07-13T14:41:51;25.90;99.90
33955;DHT22;20233;50.804;7.126;2023-07-13T14:44:21;25.70;99.90
33955;DHT22;20233;50.804;7.126;2023-07-13T14:46:49;26.20;99.90
33955;DHT22;20233;50.804;7.126;2023-07-13T14:51:57;26.70;99.90
33955;DHT22;20233;50.804;7.126;2023-07-13T14:54:25;26.90;99.90
33955;DHT22;20233;50.804;7.126;2023-07-13T14:56:51;26.90;99.90
33955;DHT22;20233;50.804;7.126;2023-07-13T14:59:17;27.00;99.90
33955;DHT22;20233;50.804;7.126;2023-07-13T15:01:48;27.10;99.90
33955;DHT22;20233;50.804;7.126;2023-07-13T15:04:15;27.10;99.90
33955;DHT22;20233;50.804;7.126;2023-07-13T15:06:59;27.00;99.90
33955;DHT22;20233;50.804;7.126;2023-07-13T15:09:27;26.40;99.90
33955;DHT22;20233;50.804;7.126;2023-07-13T15:11:55;26.70;99.90
33955;DHT22;20233;50.804;7.126;2023-07-13T15:14:23;26.80;99.90
33955;DHT22;20233;50.804;7.126;2023-07-13T15:16:53;27.00;99.90
33955;DHT22;20233;50.804;7.126;2023-07-13T15:19:19;26.80;99.90
33955;DHT22;20233;50.804;7.126;2023-07-13T15:21:47;27.00;99.90
33955;DHT22;20233;50.804;7.126;2023-07-13T15:24:14;27.00;99.90
33955;DHT22;20233;50.804;7.126;2023-07-13T15:26:42;26.60;99.90
33955;DHT22;20233;50.804;7.126;2023-07-13T15:29:15;26.70;99.90
33955;DHT22;20233;50.804;7.126;2023-07-13T15:31:42;26.30;99.90
33955;DHT22;20233;50.804;7.126;2023-07-13T15:34:16;26.70;99.90
33955;DHT22;20233;50.804;7.126;2023-07-13T15:36:44;26.60;99.90
33955;DHT22;20233;50.804;7.126;2023-07-13T15:39:15;26.80;99.90
33955;DHT22;20233;50.804;7.126;2023-07-13T15:41:43;27.00;99.90
33955;DHT22;20233;50.804;7.126;2023-07-13T15:44:28;27.00;99.90
33955;DHT22;20233;50.804;7.126;2023-07-13T15:46:55;27.10;99.90
33955;DHT22;20233;50.804;7.126;2023-07-13T15:49:21;27.20;99.90
33955;DHT22;20233;50.804;7.126;2023-07-13T15:51:48;27.10;99.90
33955;DHT22;20233;50.804;7.126;2023-07-13T15:54:16;27.30;99.90
33955;DHT22;20233;50.804;7.126;2023-07-13T15:56:45;27.20;99.90
33955;DHT22;20233;50.804;7.126;2023-07-13T15:59:14;27.20;99.90
33955;DHT22;20233;50.804;7.126;2023-07-13T16:01:41;26.00;99.90
33955;DHT22;20233;50.804;7.126;2023-07-13T16:04:08;26.10;99.90
33955;DHT22;20233;50.804;7.126;2023-07-13T16:06:39;25.80;99.90
33955;DHT22;20233;50.804;7.126;2023-07-13T16:09:07;26.30;99.90
33955;DHT22;20233;50.804;7.126;2023-07-13T16:11:38;25.20;99.90
33955;DHT22;20233;50.804;7.126;2023-07-13T16:14:05;24.60;99.90
33955;DHT22;20233;50.804;7.126;2023-07-13T16:16:34;24.70;99.90
33955;DHT22;20233;50.804;7.126;2023-07-13T16:19:03;24.00;99.90
33955;DHT22;20233;50.804;7.126;2023-07-13T16:21:33;24.60;99.90
33955;DHT22;20233;50.804;7.126;2023-07-13T16:24:02;24.90;99.90
33955;DHT22;20233;50.804;7.126;2023-07-13T16:26:34;23.90;99.90
33955;DHT22;20233;50.804;7.126;2023-07-13T16:29:18;24.20;99.90
33955;DHT22;20233;50.804;7.126;2023-07-13T16:32:02;24.50;99.90